Regional Weather

 

KCRX - Corinth, Mississippi, USA
Distance from station: SW 29mi, 47km
Updated: Mon, 27-Jun-2022 8:55am CDT
Clear
Clear
 Wind from NNE
Wind: NNE 12 mph , 19 km/h
Temperature: 77°F , 25°C
Dew Point: 61°F , 16°C
Humidity: 57%
Barometer: 30.18 inHg , 1022 hPa
Clouds: Clear
Visibility: 10 miles , 16 km
2022/06/27 13:55 KCRX 271355Z AUTO 03010KT 10SM CLR 25/16 A3018 RMK AO2
KMKL - Jackson, Tennessee, USA
Distance from station: NW 46mi, 73km
Updated: Mon, 27-Jun-2022 8:53am CDT
Partly cloudy
Partly cloudy
 Wind from N
Wind: N 12 mph , 19 km/h
Temperature: 70°F , 21°C
Barometer: 30.23 inHg , 1023.7 hPa
Clouds: Partly cloudy
Visibility: 10 miles , 16 km
Cloud details: Partly cloudy 4000 ft
2022/06/27 13:53 KMKL 271353Z 36010KT 10SM SCT040 21/ A3023 RMK AO2 SLPNO T0211 $
 
KMSL - Muscle Shoal, Alabama, USA
Distance from station: SE 49mi, 79km
Updated: Mon, 27-Jun-2022 8:53am CDT
Overcast
Overcast
 Wind from N
Wind: N 5 mph , 7 km/h
Temperature: 79°F , 26°C
Dew Point: 68°F , 20°C
Humidity: 70%
Barometer: 30.16 inHg , 1021.3 hPa
Clouds: Overcast
Visibility: 10 miles , 16 km
Cloud details: Overcast 1700 ft
2022/06/27 13:53 KMSL 271353Z AUTO 35004KT 10SM OVC017 26/20 A3016 RMK AO2 SLP207 T02560200
KTUP - Tupelo, Mississippi, USA
Distance from station: SSW 72mi, 117km
Updated: Mon, 27-Jun-2022 8:53am CDT
Mostly cloudy
Mostly cloudy
 Wind from N
Wind: N 18 mph , 30 km/h, Gust: 23 mph , 37 km/h
Temperature: 79°F , 26°C
Dew Point: 64°F , 18°C
Humidity: 61%
Barometer: 30.16 inHg , 1021.3 hPa
Clouds: Mostly cloudy
Visibility: 10 miles , 16 km
Cloud details: Mostly cloudy 10000 ft
2022/06/27 13:53 KTUP 271353Z 01016G20KT 10SM BKN100 26/18 A3016 RMK AO2 SLP209 T02560178 $
 
KHSV - Huntsville, Alabama, USA
Distance from station: ESE 92mi, 148km
Updated: Mon, 27-Jun-2022 8:53am CDT
Mostly cloudy
Mostly cloudy
 Wind from N
Wind: N 10 mph , 17 km/h
Temperature: 81°F , 27°C
Heat Index: 85°F , 29°C
Dew Point: 70°F , 21°C
Humidity: 70%
Barometer: 30.14 inHg , 1020.7 hPa
Clouds: Mostly cloudy
Visibility: 10 miles , 16 km
Cloud details: Mostly cloudy 1700 ft
Mostly cloudy 5000 ft
Mostly cloudy 25000 ft
2022/06/27 13:53 KHSV 271353Z 01009KT 10SM BKN017 BKN050 BKN250 27/21 A3014 RMK AO2 SLP200 T02670211
KBNA - Nashville, TN, USA
Distance from station: NE 97mi, 157km
Updated: Mon, 27-Jun-2022 8:53am CDT
Mostly cloudy
Mostly cloudy
 Wind from N
Wind: N 10 mph , 17 km/h
Temperature: 75°F , 24°C
Dew Point: 55°F , 13°C
Humidity: 50%
Barometer: 30.20 inHg , 1022.7 hPa
Clouds: Mostly cloudy
Visibility: 10 miles , 16 km
Cloud details: Few Clouds 4200 ft
Mostly cloudy 5000 ft
2022/06/27 13:53 KBNA 271353Z 01009KT 10SM FEW042 BKN050 24/13 A3020 RMK AO2 SLP218 T02440133
 
KMEM - Memphis, Tennessee, USA
Distance from station: W 99mi, 159km
Updated: Mon, 27-Jun-2022 8:54am CDT
Mostly cloudy
Mostly cloudy
 Wind from NE
Wind: NE 14 mph , 22 km/h
Temperature: 79°F , 26°C
Dew Point: 59°F , 15°C
Humidity: 51%
Barometer: 30.22 inHg , 1023.4 hPa
Clouds: Mostly cloudy
Visibility: 10 miles , 16 km
Cloud details: Few Clouds 4700 ft
Mostly cloudy 25000 ft
2022/06/27 13:54 KMEM 271354Z 04012KT 10SM FEW047 BKN250 26/15 A3022 RMK AO2 SLP229 T02560150
KCKV - Clarksville, TN, USA
Distance from station: NNE 99mi, 159km
Updated: Mon, 27-Jun-2022 8:52am CDT
Clear
Clear
 Wind from NNE
Wind: NNE 8 mph , 13 km/h
Temperature: 75°F , 24°C
Dew Point: 55°F , 13°C
Humidity: 50%
Barometer: 30.21 inHg , 1023 hPa
Clouds: Clear
Visibility: 10 miles , 16 km
2022/06/27 13:52 KCKV 271352Z AUTO 03007KT 360V070 10SM CLR 24/13 A3021 RMK AO2 SLP225 T02440133
 
KCHA - Chattanooga, TN, USA
Distance from station: E 165mi, 265km
Updated: Mon, 27-Jun-2022 8:57am CDT
Heavy rain, Mist, Overcast
Heavy rain, Mist, Overcast
 Wind from N
Wind: N 3 mph , 6 km/h
Temperature: 73°F , 23°C
Dew Point: 72°F , 22°C
Humidity: 94%
Barometer: 30.15 inHg , 1021 hPa
Summary: Heavy rain, Mist
Clouds: Overcast
Visibility: 1 1/4 miles , 2 km
Cloud details: Few Clouds 1200 ft
Mostly cloudy 4000 ft
Overcast 7000 ft
2022/06/27 13:57 KCHA 271357Z 35003KT 1 1/4SM +RA BR FEW012 BKN040 OVC070 23/22 A3015 RMK AO2 CB OHD-S MOV SE P0001 T02330217 $
KTYS - Knoxville, TN, USA
Distance from station: E 234mi, 377km
Updated: Mon, 27-Jun-2022 8:53am CDT
Light rain, Overcast
Light rain, Overcast
 Wind from calm
Wind: Calm
Temperature: 73°F , 23°C
Dew Point: 70°F , 21°C
Humidity: 89%
Barometer: 30.15 inHg , 1021 hPa
Summary: Light rain
Clouds: Overcast
Visibility: 10 miles , 16 km
Cloud details: Few Clouds 500 ft
Overcast 1800 ft
2022/06/27 13:53 KTYS 271353Z 00000KT 10SM -RA FEW005 OVC018 23/21 A3015 RMK AO2 RAB49 SLP199 P0000 T02280206

Refresh Page for latest data.